createdAt,value
2023-03-04T00:00:33.277Z,6.70
2023-03-04T00:09:51.348Z,6.70
2023-03-04T00:12:31.138Z,6.70
2023-03-04T00:14:58.498Z,6.70
2023-03-04T00:17:26.035Z,6.60
2023-03-04T00:19:53.481Z,6.60
2023-03-04T00:22:21.030Z,6.60
2023-03-04T00:24:48.546Z,6.60
2023-03-04T00:27:15.900Z,6.60
2023-03-04T00:29:43.191Z,6.60
2023-03-04T00:32:10.501Z,5.60
2023-03-04T00:34:37.813Z,6.60
2023-03-04T00:37:05.186Z,6.70
2023-03-04T00:39:32.615Z,6.70
2023-03-04T00:41:59.898Z,6.70
2023-03-04T00:44:27.240Z,6.60
2023-03-04T00:46:54.623Z,6.60
2023-03-04T00:49:22.354Z,6.60
2023-03-04T00:51:49.645Z,6.60
2023-03-04T00:54:16.955Z,5.60
2023-03-04T00:56:44.268Z,6.60
2023-03-04T00:59:11.536Z,6.60
2023-03-04T01:01:38.880Z,7.00
2023-03-04T01:04:06.200Z,6.60
2023-03-04T01:06:33.444Z,6.60
2023-03-04T01:09:00.891Z,6.60
2023-03-04T01:11:28.159Z,6.50
2023-03-04T01:13:55.457Z,6.60
2023-03-04T01:16:22.829Z,6.70
2023-03-04T01:18:50.138Z,6.70
2023-03-04T01:21:17.732Z,6.60
2023-03-04T01:23:45.028Z,6.60
2023-03-04T01:26:12.377Z,6.60
2023-03-04T01:28:39.666Z,6.60
2023-03-04T01:31:07.130Z,6.70
2023-03-04T01:33:34.698Z,6.70
2023-03-04T01:36:02.057Z,6.60
2023-03-04T01:38:29.354Z,6.60
2023-03-04T01:40:56.855Z,6.60
2023-03-04T01:43:27.773Z,8.50
2023-03-04T01:45:56.656Z,6.50
2023-03-04T01:48:37.057Z,6.60
2023-03-04T01:51:07.232Z,6.60
2023-03-04T01:53:34.637Z,6.60
2023-03-04T01:56:10.980Z,6.60
2023-03-04T01:58:38.396Z,6.50
2023-03-04T02:01:05.681Z,7.50
2023-03-04T02:03:33.056Z,6.20
2023-03-04T02:06:00.437Z,6.60
2023-03-04T02:08:27.761Z,6.60
2023-03-04T02:10:55.393Z,5.40
2023-03-04T02:13:23.263Z,6.60
2023-03-04T02:15:50.593Z,6.60
2023-03-04T02:18:23.715Z,6.60
2023-03-04T02:20:57.276Z,6.60
2023-03-04T02:24:05.794Z,6.60
2023-03-04T02:26:35.176Z,6.60
2023-03-04T02:29:03.683Z,6.50
2023-03-04T02:31:43.153Z,6.50
2023-03-04T02:34:19.863Z,6.50
2023-03-04T02:36:48.633Z,6.50
2023-03-04T02:39:23.391Z,6.20
2023-03-04T02:41:53.228Z,6.50
2023-03-04T02:44:23.612Z,6.50
2023-03-04T02:46:51.983Z,6.50
2023-03-04T02:49:20.521Z,6.50
2023-03-04T02:51:52.117Z,6.50
2023-03-04T02:54:22.650Z,6.50
2023-03-04T02:56:51.927Z,6.50
2023-03-04T02:59:20.412Z,8.00
2023-03-04T03:01:47.905Z,6.50
2023-03-04T03:04:15.914Z,6.50
2023-03-04T03:06:43.202Z,6.40
2023-03-04T03:09:10.642Z,6.50
2023-03-04T03:11:37.981Z,6.50
2023-03-04T03:14:06.133Z,6.50
2023-03-04T03:16:33.544Z,6.50
2023-03-04T03:19:01.048Z,6.50
2023-03-04T03:21:28.370Z,6.50
2023-03-04T03:23:55.658Z,6.90
2023-03-04T03:26:22.986Z,6.50
2023-03-04T03:28:50.292Z,6.40
2023-03-04T03:31:17.682Z,6.50
2023-03-04T03:33:44.957Z,6.40
2023-03-04T03:36:12.332Z,6.50
2023-03-04T03:38:39.668Z,6.50
2023-03-04T03:41:06.954Z,6.50
2023-03-04T03:43:34.340Z,6.50
2023-03-04T03:46:01.635Z,6.40
2023-03-04T03:48:28.990Z,6.60
2023-03-04T03:50:56.260Z,7.00
2023-03-04T03:53:23.635Z,6.40
2023-03-04T03:55:50.922Z,6.60
2023-03-04T03:58:18.267Z,6.50
2023-03-04T04:00:45.593Z,6.50
2023-03-04T04:03:16.150Z,6.50
2023-03-04T04:05:43.429Z,6.50
2023-03-04T04:08:19.651Z,6.50
2023-03-04T04:10:46.950Z,6.50
2023-03-04T04:13:14.252Z,6.50
2023-03-04T04:15:41.630Z,6.50
2023-03-04T04:18:09.234Z,6.50
2023-03-04T04:20:36.861Z,6.50
2023-03-04T04:23:04.448Z,6.50
2023-03-04T04:25:31.764Z,6.50
2023-03-04T04:27:59.542Z,6.50
2023-03-04T04:30:26.913Z,8.50
2023-03-04T04:32:54.217Z,6.50
2023-03-04T04:35:21.598Z,6.50
2023-03-04T04:37:48.906Z,6.40
2023-03-04T04:40:16.794Z,6.40
2023-03-04T04:42:44.162Z,6.50
2023-03-04T04:45:11.685Z,7.70
2023-03-04T04:47:39.236Z,6.50
2023-03-04T04:50:07.222Z,6.50
2023-03-04T04:52:34.544Z,6.50
2023-03-04T04:55:02.197Z,6.50
2023-03-04T04:57:29.484Z,6.40
2023-03-04T04:59:56.845Z,6.40
2023-03-04T05:02:24.116Z,6.50
2023-03-04T05:04:51.406Z,6.50
2023-03-04T05:07:18.750Z,6.50
2023-03-04T05:09:46.083Z,6.50
2023-03-04T05:12:13.366Z,6.60
2023-03-04T05:14:40.706Z,6.80
2023-03-04T05:17:08.009Z,6.10
2023-03-04T05:19:35.286Z,6.50
2023-03-04T05:22:02.577Z,6.50
2023-03-04T05:24:29.846Z,6.50
2023-03-04T05:26:57.398Z,6.40
2023-03-04T05:29:24.718Z,6.40
2023-03-04T05:31:51.994Z,6.40
2023-03-04T05:34:19.325Z,6.40
2023-03-04T05:36:46.567Z,6.40
2023-03-04T05:39:13.859Z,6.40
2023-03-04T05:41:41.128Z,6.30
2023-03-04T05:44:08.383Z,6.00
2023-03-04T05:46:35.758Z,6.30
2023-03-04T05:49:03.129Z,6.30
2023-03-04T05:51:30.447Z,6.30
2023-03-04T05:53:57.738Z,6.00
2023-03-04T05:56:25.094Z,6.40
2023-03-04T05:58:52.413Z,6.40
2023-03-04T06:01:19.714Z,6.40
2023-03-04T06:03:49.272Z,6.40
2023-03-04T06:06:17.004Z,6.40
2023-03-04T06:08:44.321Z,6.10
2023-03-04T06:11:11.601Z,6.80
2023-03-04T06:13:39.328Z,6.30
2023-03-04T06:16:06.930Z,6.30
2023-03-04T06:18:34.357Z,6.40
2023-03-04T06:21:03.478Z,6.30
2023-03-04T06:23:31.238Z,6.00
2023-03-04T06:25:59.911Z,6.40
2023-03-04T06:28:27.978Z,5.80
2023-03-04T06:30:56.788Z,6.40
2023-03-04T06:33:24.609Z,6.30
2023-03-04T06:35:56.031Z,6.30
2023-03-04T06:38:24.083Z,6.30
2023-03-04T06:40:51.429Z,6.30
2023-03-04T06:43:19.480Z,6.30
2023-03-04T06:45:47.053Z,6.30
2023-03-04T06:48:14.405Z,6.20
2023-03-04T06:50:41.851Z,6.10
2023-03-04T06:53:09.174Z,6.80
2023-03-04T06:55:36.571Z,6.50
2023-03-04T06:58:03.895Z,6.00
2023-03-04T07:00:31.301Z,6.20
2023-03-04T07:02:59.757Z,7.30
2023-03-04T07:05:27.131Z,6.20
2023-03-04T07:07:54.462Z,6.10
2023-03-04T07:10:21.753Z,6.20
2023-03-04T07:12:49.238Z,6.20
2023-03-04T07:15:16.644Z,6.40
2023-03-04T07:17:44.096Z,6.20
2023-03-04T07:20:11.825Z,6.30
2023-03-04T07:22:39.225Z,6.30
2023-03-04T07:25:07.544Z,6.30
2023-03-04T07:27:34.912Z,6.30
2023-03-04T07:30:02.594Z,6.20
2023-03-04T07:32:30.321Z,6.20
2023-03-04T07:34:57.721Z,6.20
2023-03-04T07:37:25.098Z,6.20
2023-03-04T07:39:52.611Z,6.10
2023-03-04T07:42:19.934Z,6.20
2023-03-04T07:44:47.324Z,7.00
2023-03-04T07:47:14.626Z,7.00
2023-03-04T07:49:41.894Z,6.20
2023-03-04T07:52:09.579Z,6.20
2023-03-04T07:54:37.070Z,6.20
2023-03-04T07:57:04.443Z,6.20
2023-03-04T07:59:32.101Z,6.70
2023-03-04T08:01:59.544Z,6.20
2023-03-04T08:04:26.947Z,6.20
2023-03-04T08:06:54.279Z,6.20
2023-03-04T08:09:21.584Z,6.20
2023-03-04T08:11:48.961Z,6.30
2023-03-04T08:14:16.243Z,6.30
2023-03-04T08:16:43.642Z,6.30
2023-03-04T08:19:11.858Z,6.30
2023-03-04T08:21:39.691Z,6.40
2023-03-04T08:24:08.947Z,6.40
2023-03-04T08:26:41.940Z,6.40
2023-03-04T08:29:14.986Z,6.50
2023-03-04T08:31:46.849Z,6.50
2023-03-04T08:34:15.871Z,6.50
2023-03-04T08:36:43.356Z,6.50
2023-03-04T08:39:14.294Z,6.50
2023-03-04T08:41:42.101Z,6.70
2023-03-04T08:44:10.385Z,6.70
2023-03-04T08:46:39.614Z,6.70
2023-03-04T08:49:07.893Z,6.70
2023-03-04T08:51:35.922Z,6.70
2023-03-04T08:54:04.277Z,6.70
2023-03-04T08:56:31.924Z,6.70
2023-03-04T08:58:59.619Z,6.80
2023-03-04T09:01:27.198Z,6.80
2023-03-04T09:03:54.689Z,6.80
2023-03-04T09:06:22.212Z,6.80
2023-03-04T09:08:49.550Z,6.80
2023-03-04T09:11:17.829Z,6.80
2023-03-04T09:13:45.356Z,6.80
2023-03-04T09:16:14.535Z,6.90
2023-03-04T09:18:42.240Z,6.90
2023-03-04T09:21:10.380Z,6.90
2023-03-04T09:23:39.021Z,7.00
2023-03-04T09:26:27.286Z,6.90
2023-03-04T09:28:57.183Z,7.00
2023-03-04T09:31:26.674Z,7.00
2023-03-04T09:33:56.019Z,6.90
2023-03-04T09:36:23.999Z,7.40
2023-03-04T09:38:51.841Z,7.10
2023-03-04T09:41:23.889Z,6.90
2023-03-04T09:43:53.327Z,6.90
2023-03-04T09:46:43.199Z,6.90
2023-03-04T09:49:13.272Z,6.90
2023-03-04T09:52:01.639Z,7.60
2023-03-04T09:54:45.161Z,6.90
2023-03-04T09:57:24.777Z,6.90
2023-03-04T10:00:09.869Z,7.50
2023-03-04T10:02:58.421Z,6.90
2023-03-04T10:05:29.047Z,7.00
2023-03-04T10:08:19.042Z,7.10
2023-03-04T10:10:49.069Z,7.10
2023-03-04T10:13:23.494Z,7.10
2023-03-04T10:15:51.741Z,6.90
2023-03-04T10:18:24.105Z,7.20
2023-03-04T10:20:58.317Z,7.20
2023-03-04T10:23:27.957Z,7.10
2023-03-04T10:25:55.885Z,7.20
2023-03-04T10:28:29.167Z,7.20
2023-03-04T10:31:08.250Z,5.90
2023-03-04T10:33:40.259Z,7.30
2023-03-04T10:36:31.681Z,7.30
2023-03-04T10:39:21.327Z,7.30
2023-03-04T10:41:58.059Z,7.30
2023-03-04T10:44:26.237Z,7.30
2023-03-04T10:46:55.768Z,7.30
2023-03-04T10:49:25.179Z,7.40
2023-03-04T10:52:03.629Z,7.40
2023-03-04T10:54:30.877Z,7.40
2023-03-04T10:57:32.409Z,7.40
2023-03-04T11:00:00.814Z,7.40
2023-03-04T11:02:36.226Z,7.50
2023-03-04T11:05:16.536Z,7.50
2023-03-04T11:07:57.347Z,7.50
2023-03-04T11:10:44.311Z,7.60
2023-03-04T11:13:11.805Z,7.50
2023-03-04T11:16:23.659Z,7.60
2023-03-04T11:18:54.250Z,7.70
2023-03-04T11:21:24.967Z,7.70
2023-03-04T11:23:54.956Z,7.70
2023-03-04T11:26:26.389Z,7.60
2023-03-04T11:28:58.544Z,7.60
2023-03-04T11:31:35.147Z,7.70
2023-03-04T11:34:13.993Z,7.70
2023-03-04T11:37:24.574Z,7.80
2023-03-04T11:40:07.259Z,7.80
2023-03-04T11:42:59.787Z,7.80
2023-03-04T11:46:00.452Z,7.70
2023-03-04T11:48:49.048Z,7.80
2023-03-04T11:51:22.472Z,7.80
2023-03-04T11:54:21.064Z,7.80
2023-03-04T11:56:53.158Z,7.80
2023-03-04T11:59:33.405Z,7.80
2023-03-04T12:02:20.642Z,7.70
2023-03-04T12:05:18.687Z,7.70
2023-03-04T12:07:58.378Z,7.60
2023-03-04T12:10:39.653Z,7.60
2023-03-04T12:13:24.775Z,7.60
2023-03-04T12:15:55.070Z,7.60
2023-03-04T12:18:34.112Z,7.60
2023-03-04T12:21:10.567Z,7.60
2023-03-04T12:23:56.422Z,7.70
2023-03-04T12:26:43.456Z,7.80
2023-03-04T12:29:25.613Z,7.80
2023-03-04T12:32:09.834Z,7.90
2023-03-04T12:35:08.348Z,8.00
2023-03-04T12:37:58.603Z,8.00
2023-03-04T12:41:12.086Z,8.00
2023-03-04T12:43:48.145Z,8.10
2023-03-04T12:46:28.231Z,8.00
2023-03-04T12:49:27.108Z,8.10
2023-03-04T12:52:12.434Z,8.10
2023-03-04T12:54:42.920Z,8.00
2023-03-04T12:57:21.288Z,8.00
2023-03-04T13:00:19.221Z,8.00
2023-03-04T13:02:58.557Z,7.90
2023-03-04T13:05:31.764Z,7.90
2023-03-04T13:08:19.211Z,7.90
2023-03-04T13:10:46.665Z,7.90
2023-03-04T13:13:32.567Z,7.90
2023-03-04T13:16:24.817Z,7.80
2023-03-04T13:18:52.296Z,7.90
2023-03-04T13:21:26.358Z,7.90
2023-03-04T13:23:54.478Z,7.90
2023-03-04T13:26:29.231Z,7.90
2023-03-04T13:29:16.733Z,7.90
2023-03-04T13:32:04.267Z,7.30
2023-03-04T13:34:58.195Z,7.90
2023-03-04T13:37:35.978Z,7.80
2023-03-04T13:40:24.439Z,7.80
2023-03-04T13:42:51.739Z,7.90
2023-03-04T13:45:40.214Z,7.90
2023-03-04T13:48:32.820Z,7.90
2023-03-04T13:51:00.356Z,7.90
2023-03-04T13:53:30.774Z,8.00
2023-03-04T13:56:08.756Z,8.00
2023-03-04T13:58:36.720Z,8.10
2023-03-04T14:01:04.998Z,8.00
2023-03-04T14:03:35.542Z,8.10
2023-03-04T14:06:12.405Z,8.10
2023-03-04T14:08:39.927Z,8.30
2023-03-04T14:11:27.220Z,8.20
2023-03-04T14:13:57.014Z,8.10
2023-03-04T14:16:28.039Z,8.10
2023-03-04T14:19:03.428Z,8.10
2023-03-04T14:21:31.898Z,8.10
2023-03-04T14:24:11.689Z,8.00
2023-03-04T14:26:39.313Z,8.00
2023-03-04T14:29:23.323Z,8.00
2023-03-04T14:31:51.768Z,8.00
2023-03-04T14:34:39.421Z,8.00
2023-03-04T14:37:22.945Z,8.10
2023-03-04T14:39:57.339Z,8.20
2023-03-04T14:42:32.835Z,8.30
2023-03-04T14:45:01.685Z,8.40
2023-03-04T14:47:39.284Z,8.40
2023-03-04T14:50:18.615Z,8.30
2023-03-04T14:52:48.774Z,8.40
2023-03-04T14:55:22.416Z,8.30
2023-03-04T14:58:16.837Z,8.30
2023-03-04T15:00:45.436Z,8.30
2023-03-04T15:03:28.556Z,8.30
2023-03-04T15:05:58.964Z,9.70
2023-03-04T15:08:36.076Z,8.30
2023-03-04T15:11:06.556Z,8.20
2023-03-04T15:13:44.634Z,8.10
2023-03-04T15:16:14.879Z,8.00
2023-03-04T15:19:06.429Z,8.00
2023-03-04T15:21:42.305Z,7.90
2023-03-04T15:24:11.782Z,7.90
2023-03-04T15:26:42.673Z,7.90
2023-03-04T15:29:21.240Z,8.00
2023-03-04T15:31:49.343Z,7.90
2023-03-04T15:34:22.185Z,7.90
2023-03-04T15:36:53.051Z,7.90
2023-03-04T15:39:23.330Z,7.90
2023-03-04T15:41:51.177Z,8.00
2023-03-04T15:44:18.817Z,8.00
2023-03-04T15:46:46.670Z,7.80
2023-03-04T15:49:14.208Z,8.00
2023-03-04T15:51:42.402Z,8.00
2023-03-04T15:54:14.027Z,8.00
2023-03-04T15:56:41.980Z,8.00
2023-03-04T15:59:14.547Z,8.00
2023-03-04T16:01:42.308Z,7.90
2023-03-04T16:04:18.597Z,7.90
2023-03-04T16:06:48.727Z,7.90
2023-03-04T16:09:20.187Z,8.30
2023-03-04T16:11:48.062Z,7.90
2023-03-04T16:14:17.994Z,7.90
2023-03-04T16:16:47.116Z,8.00
2023-03-04T16:19:15.143Z,7.90
2023-03-04T16:21:43.424Z,7.90
2023-03-04T16:24:20.285Z,7.90
2023-03-04T16:26:49.164Z,8.10
2023-03-04T16:29:27.698Z,7.80
2023-03-04T16:31:55.579Z,7.80
2023-03-04T16:34:25.120Z,8.00
2023-03-04T16:36:53.657Z,7.80
2023-03-04T16:40:29.891Z,7.80
2023-03-04T16:43:21.621Z,7.80
2023-03-04T16:45:49.953Z,7.80
2023-03-04T16:48:20.717Z,7.80
2023-03-04T16:50:48.869Z,7.80
2023-03-04T16:53:33.891Z,7.70
2023-03-04T16:56:16.809Z,7.70
2023-03-04T16:59:09.529Z,7.60
2023-03-04T17:01:43.306Z,7.60
2023-03-04T17:04:27.933Z,7.70
2023-03-04T17:07:12.693Z,7.60
2023-03-04T17:09:41.135Z,7.60
2023-03-04T17:12:11.146Z,7.60
2023-03-04T17:14:39.439Z,7.60
2023-03-04T17:17:07.811Z,7.70
2023-03-04T17:19:35.494Z,7.60
2023-03-04T17:22:03.193Z,7.60
2023-03-04T17:24:30.668Z,7.60
2023-03-04T17:26:58.083Z,7.20
2023-03-04T17:29:25.497Z,7.60
2023-03-04T17:31:52.797Z,7.60
2023-03-04T17:34:20.684Z,7.60
2023-03-04T17:36:48.047Z,7.60
2023-03-04T17:39:15.410Z,7.60
2023-03-04T17:41:42.756Z,7.60
2023-03-04T17:44:12.462Z,7.60
2023-03-04T17:46:39.828Z,7.70
2023-03-04T17:49:07.222Z,7.70
2023-03-04T17:51:36.713Z,7.70
2023-03-04T17:54:05.864Z,7.70
2023-03-04T17:56:34.810Z,7.70
2023-03-04T17:59:05.820Z,7.70
2023-03-04T18:01:33.292Z,7.70
2023-03-04T18:04:00.651Z,7.60
2023-03-04T18:06:27.953Z,7.70
2023-03-04T18:08:55.341Z,7.70
2023-03-04T18:11:24.150Z,9.00
2023-03-04T18:13:53.736Z,7.60
2023-03-04T18:16:27.121Z,7.50
2023-03-04T18:18:57.916Z,7.60
2023-03-04T18:21:26.432Z,7.60
2023-03-04T18:23:53.799Z,7.60
2023-03-04T18:26:24.248Z,7.60
2023-03-04T18:28:52.287Z,7.50
2023-03-04T18:31:25.504Z,7.50
2023-03-04T18:33:53.189Z,7.50
2023-03-04T18:36:20.985Z,7.50
2023-03-04T18:38:48.363Z,7.50
2023-03-04T18:41:16.458Z,7.40
2023-03-04T18:43:43.887Z,7.40
2023-03-04T18:46:26.654Z,8.20
2023-03-04T18:48:58.273Z,7.50
2023-03-04T18:51:25.672Z,7.50
2023-03-04T18:53:52.973Z,7.50
2023-03-04T18:56:27.569Z,7.50
2023-03-04T18:58:55.052Z,7.50
2023-03-04T19:01:24.933Z,7.50
2023-03-04T19:03:54.460Z,7.50
2023-03-04T19:06:23.622Z,7.50
2023-03-04T19:08:55.287Z,7.50
2023-03-04T19:11:24.991Z,7.50
2023-03-04T19:13:52.561Z,7.50
2023-03-04T19:16:19.933Z,7.30
2023-03-04T19:18:47.276Z,7.50
2023-03-04T19:21:14.616Z,7.40
2023-03-04T19:23:41.897Z,7.40
2023-03-04T19:26:09.612Z,7.40
2023-03-04T19:28:37.007Z,7.80
2023-03-04T19:31:09.321Z,7.40
2023-03-04T19:33:37.657Z,7.30
2023-03-04T19:36:06.476Z,7.30
2023-03-04T19:38:34.497Z,7.40
2023-03-04T19:41:16.696Z,7.40
2023-03-04T19:43:45.938Z,7.40
2023-03-04T19:46:13.987Z,7.40
2023-03-04T19:48:41.974Z,7.40
2023-03-04T19:51:18.638Z,7.50
2023-03-04T19:53:46.360Z,8.00
2023-03-04T19:56:14.738Z,7.90
2023-03-04T19:58:42.075Z,7.90
2023-03-04T20:01:31.224Z,7.40
2023-03-04T20:04:01.478Z,7.40
2023-03-04T20:06:29.956Z,7.40
2023-03-04T20:08:59.881Z,7.40
2023-03-04T20:11:28.700Z,7.50
2023-03-04T20:13:58.396Z,7.40
2023-03-04T20:16:26.600Z,7.40
2023-03-04T20:18:55.017Z,7.40
2023-03-04T20:21:22.316Z,7.40
2023-03-04T20:23:51.080Z,7.40
2023-03-04T20:26:18.582Z,7.40
2023-03-04T20:28:45.924Z,7.40
2023-03-04T20:31:31.559Z,7.40
2023-03-04T20:34:00.124Z,7.40
2023-03-04T20:36:29.256Z,7.40
2023-03-04T20:39:02.421Z,7.30
2023-03-04T20:41:30.389Z,7.30
2023-03-04T20:43:58.021Z,7.30
2023-03-04T20:46:45.302Z,7.40
2023-03-04T20:49:19.884Z,7.30
2023-03-04T20:51:47.343Z,7.20
2023-03-04T20:54:14.994Z,7.80
2023-03-04T20:56:42.583Z,7.30
2023-03-04T20:59:11.648Z,7.30
2023-03-04T21:01:42.552Z,7.30
2023-03-04T21:04:10.822Z,7.30
2023-03-04T21:06:38.889Z,7.30
2023-03-04T21:09:14.543Z,7.30
2023-03-04T21:11:42.739Z,7.30
2023-03-04T21:14:22.416Z,7.30
2023-03-04T21:16:52.263Z,7.30
2023-03-04T21:19:25.904Z,7.30
2023-03-04T21:21:54.391Z,7.50
2023-03-04T21:24:24.584Z,7.30
2023-03-04T21:26:52.310Z,7.30
2023-03-04T21:29:22.594Z,7.30
2023-03-04T21:31:58.183Z,7.70
2023-03-04T21:34:37.515Z,7.30
2023-03-04T21:37:05.699Z,7.30
2023-03-04T21:39:33.427Z,7.40
2023-03-04T21:42:01.536Z,7.30
2023-03-04T21:44:38.778Z,7.20
2023-03-04T21:47:15.494Z,7.30
2023-03-04T21:49:43.798Z,7.30
2023-03-04T21:52:11.271Z,7.20
2023-03-04T21:54:38.585Z,7.20
2023-03-04T21:57:06.089Z,7.60
2023-03-04T21:59:33.380Z,7.30
2023-03-04T22:02:01.907Z,7.20
2023-03-04T22:04:29.328Z,7.20
2023-03-04T22:06:56.647Z,7.00
2023-03-04T22:09:24.121Z,7.20
2023-03-04T22:11:51.528Z,7.30
2023-03-04T22:14:18.859Z,5.90
2023-03-04T22:16:54.404Z,7.20
2023-03-04T22:19:25.154Z,7.10
2023-03-04T22:21:53.522Z,7.40
2023-03-04T22:24:21.986Z,7.10
2023-03-04T22:26:49.397Z,7.00
2023-03-04T22:29:16.908Z,7.00
2023-03-04T22:31:45.864Z,7.00
2023-03-04T22:34:15.115Z,7.10
2023-03-04T22:36:45.492Z,7.10
2023-03-04T22:39:15.620Z,7.00
2023-03-04T22:41:43.141Z,7.10
2023-03-04T22:44:10.738Z,7.00
2023-03-04T22:46:39.736Z,7.10
2023-03-04T22:49:10.026Z,7.10
2023-03-04T22:51:38.722Z,7.00
2023-03-04T22:54:06.104Z,7.00
2023-03-04T22:56:33.884Z,7.00
2023-03-04T22:59:01.211Z,7.80
2023-03-04T23:01:28.610Z,7.00
2023-03-04T23:03:55.955Z,7.00
2023-03-04T23:06:27.751Z,6.90
2023-03-04T23:08:55.319Z,6.80
2023-03-04T23:11:26.444Z,7.20
2023-03-04T23:13:55.223Z,6.90
2023-03-04T23:16:25.081Z,7.00
2023-03-04T23:18:53.345Z,6.90
2023-03-04T23:21:23.739Z,7.00
2023-03-04T23:23:52.204Z,6.90
2023-03-04T23:26:24.071Z,6.90
2023-03-04T23:28:52.312Z,6.90
2023-03-04T23:31:19.721Z,6.90
2023-03-04T23:33:48.110Z,6.90
2023-03-04T23:36:17.907Z,6.90
2023-03-04T23:38:47.166Z,6.90
2023-03-04T23:41:19.652Z,6.90
2023-03-04T23:43:48.548Z,6.80
2023-03-04T23:46:16.381Z,6.80
2023-03-04T23:48:47.768Z,6.70
2023-03-04T23:51:17.252Z,6.70
2023-03-04T23:54:29.324Z,6.70
